Time;durP1;ratioP1;P1;durP2;ratioP2;P2;SDS_P1;SDS_P2;PMS_P1;PMS_P2;Temp;Humidity;BMP_temperature;BMP_pressure;BME280_temperature;BME280_humidity;BME280_pressure;Samples;Min_cycle;Max_cycle;Signal;HPM_P1;HPM_P2
2021/05/17 00:00:09;;;;;;;1999.90;999.90;;;10.90;99.90;;;;;;5074944;28;20176;-84
2021/05/17 00:02:38;;;;;;;1999.90;999.90;;;10.90;99.90;;;;;;5060036;28;20282;-84
2021/05/17 00:05:13;;;;;;;1999.90;999.90;;;10.90;99.90;;;;;;5078227;28;20164;-85
2021/05/17 00:07:42;;;;;;;1999.90;999.90;;;11.00;99.90;;;;;;5076303;28;20187;-84
2021/05/17 00:10:12;;;;;;;1999.90;999.90;;;10.90;99.90;;;;;;5059108;28;20160;-84
2021/05/17 00:12:38;;;;;;;1999.90;999.90;;;11.10;99.90;;;;;;5077326;28;20158;-84
2021/05/17 00:15:09;;;;;;;1999.90;999.90;;;11.10;99.90;;;;;;5075968;28;20265;-84
2021/05/17 00:17:35;;;;;;;1999.90;999.90;;;11.20;99.90;;;;;;5077668;28;20836;-84
2021/05/17 00:20:03;;;;;;;1999.90;999.90;;;11.30;99.90;;;;;;5080394;28;20180;-83
2021/05/17 00:22:29;;;;;;;1999.90;999.90;;;11.30;99.90;;;;;;5080794;28;20203;-83
2021/05/17 00:24:55;;;;;;;1999.90;999.90;;;11.40;99.90;;;;;;5078985;28;20254;-83
2021/05/17 00:27:27;;;;;;;1999.90;999.90;;;11.40;99.90;;;;;;5078611;28;20689;-84
2021/05/17 00:29:53;;;;;;;1999.90;999.90;;;11.50;99.90;;;;;;5061565;28;20172;-84
2021/05/17 00:32:22;;;;;;;1999.90;999.90;;;11.50;99.90;;;;;;5079442;28;20618;-83
2021/05/17 00:34:48;;;;;;;1999.90;999.90;;;11.40;99.90;;;;;;5080484;28;20250;-84
2021/05/17 00:37:15;;;;;;;1999.90;999.90;;;11.40;99.90;;;;;;5079967;28;20163;-84
2021/05/17 00:39:44;;;;;;;1999.90;999.90;;;11.50;99.90;;;;;;5078388;28;20168;-84
2021/05/17 00:42:19;;;;;;;1999.90;999.90;;;11.40;99.90;;;;;;5061555;28;20732;-82
2021/05/17 00:45:17;;;;;;;1999.90;999.90;;;11.40;99.90;;;;;;5056252;28;20192;-83
2021/05/17 00:47:48;;;;;;;1999.90;999.90;;;11.40;99.90;;;;;;5082816;28;20179;-84
2021/05/17 00:50:18;;;;;;;1999.90;999.90;;;11.40;99.90;;;;;;5082686;28;20148;-83
2021/05/17 00:52:45;;;;;;;1999.90;999.90;;;11.40;99.90;;;;;;5082870;28;20152;-84
2021/05/17 00:55:11;;;;;;;1999.90;999.90;;;11.50;99.90;;;;;;5082263;28;20174;-84
2021/05/17 00:57:38;;;;;;;1999.90;999.90;;;11.40;99.90;;;;;;5079855;28;20196;-83
2021/05/17 01:00:08;;;;;;;1999.90;999.90;;;11.40;99.90;;;;;;5078299;28;20647;-83
2021/05/17 01:02:34;;;;;;;1999.90;999.90;;;11.40;99.90;;;;;;5078024;28;20182;-84
2021/05/17 01:05:00;;;;;;;1999.90;999.90;;;11.40;99.90;;;;;;5060673;28;20163;-84
2021/05/17 01:07:28;;;;;;;1999.90;999.90;;;11.40;99.90;;;;;;5078444;28;20189;-83
2021/05/17 01:09:58;;;;;;;1999.90;999.90;;;11.40;99.90;;;;;;5077359;28;20167;-83
2021/05/17 01:12:25;;;;;;;1999.90;999.90;;;11.40;99.90;;;;;;5078352;28;20238;-83
2021/05/17 01:14:57;;;;;;;1999.90;999.90;;;11.30;99.90;;;;;;5077882;28;20216;-83
2021/05/17 01:17:26;;;;;;;1999.90;999.90;;;11.30;99.90;;;;;;5060008;28;20279;-83
2021/05/17 01:20:03;;;;;;;1999.90;999.90;;;11.40;99.90;;;;;;5078707;28;20206;-84
2021/05/17 01:22:37;;;;;;;1999.90;999.90;;;11.40;99.90;;;;;;5060414;28;20207;-84
2021/05/17 01:25:04;;;;;;;1999.90;999.90;;;11.40;99.90;;;;;;5077847;28;20509;-83
2021/05/17 01:27:31;;;;;;;1999.90;999.90;;;11.40;99.90;;;;;;5061269;28;20184;-83
2021/05/17 01:29:57;;;;;;;1999.90;999.90;;;11.40;99.90;;;;;;5060445;28;20172;-84
2021/05/17 01:32:23;;;;;;;1999.90;999.90;;;11.40;99.90;;;;;;5079914;28;20206;-84
2021/05/17 01:34:49;;;;;;;1999.90;999.90;;;11.50;99.90;;;;;;5078948;28;20402;-84
2021/05/17 01:37:15;;;;;;;1999.90;999.90;;;11.40;99.90;;;;;;5079543;28;20440;-83
2021/05/17 01:39:43;;;;;;;1999.90;999.90;;;11.30;99.90;;;;;;5064024;28;20172;-84
2021/05/17 01:42:10;;;;;;;1999.90;999.90;;;11.40;99.90;;;;;;5061821;28;20187;-84
2021/05/17 01:44:39;;;;;;;1999.90;999.90;;;11.40;99.90;;;;;;5081234;28;20160;-84
2021/05/17 01:47:05;;;;;;;1999.90;999.90;;;11.40;99.90;;;;;;5079896;28;20202;-84
2021/05/17 01:49:32;;;;;;;1999.90;999.90;;;11.40;99.90;;;;;;5062312;28;20164;-83
2021/05/17 01:51:58;;;;;;;1999.90;999.90;;;11.40;99.90;;;;;;5080645;28;20167;-84
2021/05/17 01:54:30;;;;;;;1999.90;999.90;;;11.50;99.90;;;;;;5078651;28;20168;-83
2021/05/17 01:56:57;;;;;;;1999.90;999.90;;;11.50;99.90;;;;;;5078717;28;20160;-83
2021/05/17 01:59:30;;;;;;;1999.90;999.90;;;11.50;99.90;;;;;;5078601;28;20188;-83
2021/05/17 02:01:56;;;;;;;1999.90;999.90;;;11.50;99.90;;;;;;5079368;28;20176;-83
2021/05/17 02:04:25;;;;;;;1999.90;999.90;;;11.50;99.90;;;;;;5061495;28;20251;-83
2021/05/17 02:06:50;;;;;;;1999.90;999.90;;;11.50;99.90;;;;;;5079606;28;20156;-84
2021/05/17 02:09:17;;;;;;;1999.90;999.90;;;11.50;99.90;;;;;;5080169;28;20184;-84
2021/05/17 02:11:43;;;;;;;1999.90;999.90;;;11.60;99.90;;;;;;5061576;28;20493;-84
2021/05/17 02:14:10;;;;;;;1999.90;999.90;;;11.50;99.90;;;;;;5079293;28;20183;-84
2021/05/17 02:16:37;;;;;;;1999.90;999.90;;;11.50;99.90;;;;;;5061993;28;20420;-84
2021/05/17 02:19:03;;;;;;;1999.90;999.90;;;11.50;99.90;;;;;;5061011;28;20218;-84
2021/05/17 02:21:29;;;;;;;1999.90;999.90;;;11.50;99.90;;;;;;5077834;28;20225;-84
2021/05/17 02:23:54;;;;;;;1999.90;999.90;;;11.50;99.90;;;;;;5079303;28;20465;-84
2021/05/17 02:26:20;;;;;;;1999.90;999.90;;;11.50;99.90;;;;;;5078806;28;20417;-83
2021/05/17 02:28:46;;;;;;;1999.90;999.90;;;11.50;99.90;;;;;;5078886;28;20191;-84
2021/05/17 02:31:12;;;;;;;1999.90;999.90;;;11.40;99.90;;;;;;5078820;28;20402;-84
2021/05/17 02:33:38;;;;;;;1999.90;999.90;;;11.50;99.90;;;;;;5078909;28;20407;-85
2021/05/17 02:36:06;;;;;;;1999.90;999.90;;;11.50;99.90;;;;;;5077276;28;20546;-84
2021/05/17 02:38:32;;;;;;;1999.90;999.90;;;11.50;99.90;;;;;;5079274;28;20429;-84
2021/05/17 02:40:58;;;;;;;1999.90;999.90;;;11.50;99.90;;;;;;5060435;28;20678;-84
2021/05/17 02:43:26;;;;;;;1999.90;999.90;;;11.50;99.90;;;;;;5078077;28;20402;-83
2021/05/17 02:45:52;;;;;;;1999.90;999.90;;;11.40;99.90;;;;;;5078150;28;20566;-84
2021/05/17 02:48:20;;;;;;;1999.90;999.90;;;11.40;99.90;;;;;;5077885;28;20207;-83
2021/05/17 02:50:47;;;;;;;1999.90;999.90;;;11.40;99.90;;;;;;5059045;28;20540;-83
2021/05/17 02:53:49;;;;;;;1999.90;999.90;;;11.40;99.90;;;;;;5059265;28;20195;-84
2021/05/17 02:56:17;;;;;;;1999.90;999.90;;;11.40;99.90;;;;;;5059506;28;20171;-83
2021/05/17 02:58:45;;;;;;;1999.90;999.90;;;11.40;99.90;;;;;;5077745;28;20192;-84
2021/05/17 03:01:27;;;;;;;1999.90;999.90;;;11.30;99.90;;;;;;5077093;28;20195;-83
2021/05/17 03:03:55;;;;;;;1999.90;999.90;;;11.30;99.90;;;;;;5077517;28;20600;-84
2021/05/17 03:06:31;;;;;;;1999.90;999.90;;;11.20;99.90;;;;;;5059930;28;20164;-84
2021/05/17 03:08:59;;;;;;;1999.90;999.90;;;11.20;99.90;;;;;;5077807;28;20223;-84
2021/05/17 03:11:26;;;;;;;1999.90;999.90;;;11.10;99.90;;;;;;5077489;28;20168;-83
2021/05/17 03:13:53;;;;;;;1999.90;999.90;;;11.10;99.90;;;;;;5060371;28;20247;-84
2021/05/17 03:16:22;;;;;;;1999.90;999.90;;;11.10;99.90;;;;;;5077119;28;20163;-85
2021/05/17 03:18:51;;;;;;;1999.90;999.90;;;11.00;99.90;;;;;;5076565;28;20200;-84
2021/05/17 03:21:20;;;;;;;1999.90;999.90;;;11.00;99.90;;;;;;5077112;28;20701;-83
2021/05/17 03:23:48;;;;;;;1999.90;999.90;;;11.00;99.90;;;;;;5058480;28;20237;-84
2021/05/17 03:26:16;;;;;;;1999.90;999.90;;;11.00;99.90;;;;;;5058797;28;20167;-84
2021/05/17 03:28:42;;;;;;;1999.90;999.90;;;11.00;99.90;;;;;;5077164;28;20272;-84
2021/05/17 03:31:08;;;;;;;1999.90;999.90;;;11.00;99.90;;;;;;5077284;28;20200;-83
2021/05/17 03:33:34;;;;;;;1999.90;999.90;;;11.00;99.90;;;;;;5077159;28;20163;-84
2021/05/17 03:36:30;;;;;;;1999.90;999.90;;;11.00;99.90;;;;;;5059208;28;20413;-84
2021/05/17 03:38:56;;;;;;;1999.90;999.90;;;11.00;99.90;;;;;;5046319;28;20752;-84
2021/05/17 03:41:22;;;;;;;1999.90;999.90;;;10.90;99.90;;;;;;5076913;28;20185;-84
2021/05/17 03:43:47;;;;;;;1999.90;999.90;;;10.90;99.90;;;;;;5077047;28;20170;-85
2021/05/17 03:46:13;;;;;;;1999.90;999.90;;;10.90;99.90;;;;;;5076923;28;20160;-84
2021/05/17 03:48:41;;;;;;;1999.90;999.90;;;10.90;99.90;;;;;;5075665;28;20325;-84
2021/05/17 03:51:08;;;;;;;1999.90;999.90;;;10.80;99.90;;;;;;5076935;28;20637;-84
2021/05/17 03:53:34;;;;;;;1999.90;999.90;;;10.80;99.90;;;;;;5061415;28;20172;-85
2021/05/17 03:56:01;;;;;;;1999.90;999.90;;;10.80;99.90;;;;;;5079018;28;20168;-84
2021/05/17 03:58:26;;;;;;;1999.90;999.90;;;10.90;99.90;;;;;;5079355;28;20275;-84
2021/05/17 04:00:54;;;;;;;1999.90;999.90;;;10.90;99.90;;;;;;5080593;28;20276;-84
2021/05/17 04:03:21;;;;;;;1999.90;999.90;;;11.00;99.90;;;;;;5063299;28;20402;-85
2021/05/17 04:13:37;;;;;;;1999.90;999.90;;;11.10;99.90;;;;;;5079784;28;20248;-84
2021/05/17 04:16:03;;;;;;;1999.90;999.90;;;11.10;99.90;;;;;;5079972;28;20187;-83
2021/05/17 04:18:28;;;;;;;1999.90;999.90;;;11.10;99.90;;;;;;5079831;28;20287;-84
2021/05/17 04:20:54;;;;;;;1999.90;999.90;;;11.20;99.90;;;;;;5080026;28;20444;-84
2021/05/17 04:23:21;;;;;;;1999.90;999.90;;;11.20;99.90;;;;;;5079501;28;20163;-84
2021/05/17 04:25:47;;;;;;;1999.90;999.90;;;11.20;99.90;;;;;;5080200;28;20239;-84
2021/05/17 04:28:13;;;;;;;1999.90;999.90;;;11.20;99.90;;;;;;5079355;28;20203;-84
2021/05/17 04:30:38;;;;;;;1999.90;999.90;;;11.20;99.90;;;;;;5080214;28;20160;-84
2021/05/17 04:33:04;;;;;;;1999.90;999.90;;;11.30;99.90;;;;;;5078634;28;20240;-84
2021/05/17 04:35:33;;;;;;;1999.90;999.90;;;11.30;99.90;;;;;;5079558;28;20168;-83
2021/05/17 04:37:59;;;;;;;1999.90;999.90;;;11.40;99.90;;;;;;5078215;28;20187;-84
2021/05/17 04:40:25;;;;;;;1999.90;999.90;;;11.40;99.90;;;;;;5079358;28;20166;-84
2021/05/17 04:42:50;;;;;;;1999.90;999.90;;;11.40;99.90;;;;;;5079085;28;20262;-84
2021/05/17 04:45:16;;;;;;;1999.90;999.90;;;11.50;99.90;;;;;;5079278;28;20405;-84
2021/05/17 04:47:42;;;;;;;1999.90;999.90;;;11.60;99.90;;;;;;5061703;28;20180;-85
2021/05/17 04:50:08;;;;;;;1999.90;999.90;;;11.60;99.90;;;;;;5078905;28;20398;-84
2021/05/17 04:52:35;;;;;;;1999.90;999.90;;;11.60;99.90;;;;;;5078630;28;20171;-85
2021/05/17 04:55:01;;;;;;;1999.90;999.90;;;11.60;99.90;;;;;;5061641;28;20190;-85
2021/05/17 04:57:26;;;;;;;1999.90;999.90;;;11.70;99.90;;;;;;5061630;28;20183;-84
2021/05/17 04:59:52;;;;;;;1999.90;999.90;;;11.70;99.90;;;;;;5079933;28;20493;-85
2021/05/17 05:02:18;;;;;;;1999.90;999.90;;;11.80;99.90;;;;;;5079683;28;20237;-85
2021/05/17 05:04:43;;;;;;;1999.90;999.90;;;11.90;99.90;;;;;;5077955;28;20657;-84
2021/05/17 05:07:09;;;;;;;1999.90;999.90;;;11.90;99.90;;;;;;5079481;28;20211;-84
2021/05/17 05:09:34;;;;;;;1999.90;999.90;;;11.90;99.90;;;;;;5079108;28;20237;-84
2021/05/17 05:12:00;;;;;;;1999.90;999.90;;;11.90;99.90;;;;;;5078761;28;20168;-85
2021/05/17 05:14:26;;;;;;;1999.90;999.90;;;11.90;99.90;;;;;;5060823;28;20168;-84
2021/05/17 05:16:52;;;;;;;1999.90;999.90;;;12.00;99.90;;;;;;5127814;23;20227;-86
2021/05/17 05:19:18;;;;;;;1999.90;999.90;;;12.00;99.90;;;;;;5061222;28;20425;-85
2021/05/17 05:21:43;;;;;;;1999.90;999.90;;;12.00;99.90;;;;;;5059041;28;20184;-86
2021/05/17 05:24:10;;;;;;;1999.90;999.90;;;12.00;99.90;;;;;;5058994;28;20161;-85
2021/05/17 05:32:02;;;;;;;1999.90;999.90;;;12.00;99.90;;;;;;5067437;28;20153;-87
2021/05/17 05:34:29;;;;;;;1999.90;999.90;;;12.10;99.90;;;;;;5066458;28;20167;-87
2021/05/17 05:36:58;;;;;;;1999.90;999.90;;;12.10;99.90;;;;;;5066786;28;20180;-87
2021/05/17 05:39:24;;;;;;;1999.90;999.90;;;12.20;99.90;;;;;;5065852;28;20188;-87
2021/05/17 05:41:49;;;;;;;1999.90;999.90;;;12.20;99.90;;;;;;5066817;28;20721;-87
2021/05/17 05:44:15;;;;;;;1999.90;999.90;;;12.30;99.90;;;;;;5066197;28;20408;-87
2021/05/17 05:46:41;;;;;;;1999.90;999.90;;;12.40;99.90;;;;;;5049740;28;20194;-87
2021/05/17 05:49:06;;;;;;;1999.90;999.90;;;12.40;99.90;;;;;;5062777;28;20192;-86
2021/05/17 05:51:35;;;;;;;1999.90;999.90;;;12.40;99.90;;;;;;5059161;28;20234;-86
2021/05/17 05:54:00;;;;;;;1999.90;999.90;;;12.40;99.90;;;;;;5041368;28;20251;-85
2021/05/17 05:56:27;;;;;;;1999.90;999.90;;;12.50;99.90;;;;;;5023326;28;20195;-84
2021/05/17 05:58:53;;;;;;;1999.90;999.90;;;12.70;99.90;;;;;;5057330;28;20275;-85
2021/05/17 06:01:19;;;;;;;1999.90;999.90;;;12.90;99.90;;;;;;5056823;28;20220;-86
2021/05/17 06:03:45;;;;;;;1999.90;999.90;;;13.10;99.90;;;;;;5057313;28;20403;-85
2021/05/17 06:06:11;;;;;;;1999.90;999.90;;;13.20;99.90;;;;;;5059216;28;20406;-85
2021/05/17 06:08:43;;;;;;;1999.90;999.90;;;13.40;99.90;;;;;;5058583;28;20846;-86
2021/05/17 06:11:09;;;;;;;1999.90;999.90;;;13.50;99.90;;;;;;5059172;28;20153;-86
2021/05/17 06:13:38;;;;;;;1999.90;999.90;;;13.60;99.90;;;;;;5040530;28;20525;-86
2021/05/17 06:16:08;;;;;;;1999.90;999.90;;;13.50;99.90;;;;;;5058687;28;20199;-86
2021/05/17 06:18:35;;;;;;;1999.90;999.90;;;13.40;99.90;;;;;;5057972;28;20591;-85
2021/05/17 06:21:01;;;;;;;1999.90;999.90;;;13.30;99.90;;;;;;5057672;28;20442;-86
2021/05/17 06:23:28;;;;;;;1999.90;999.90;;;13.40;99.90;;;;;;5058230;28;20501;-86
2021/05/17 06:25:54;;;;;;;1999.90;999.90;;;13.50;99.90;;;;;;5059685;28;20410;-87
2021/05/17 06:28:23;;;;;;;1999.90;999.90;;;13.40;99.90;;;;;;5058259;28;20506;-87
2021/05/17 06:30:53;;;;;;;1999.90;999.90;;;13.40;99.90;;;;;;5057767;28;20161;-86
2021/05/17 06:33:21;;;;;;;1999.90;999.90;;;13.40;99.90;;;;;;5058032;28;20145;-87
2021/05/17 06:35:54;;;;;;;1999.90;999.90;;;13.50;99.90;;;;;;5042362;28;20169;-86
2021/05/17 06:38:20;;;;;;;1999.90;999.90;;;13.60;99.90;;;;;;5042682;28;20276;-86
2021/05/17 06:40:46;;;;;;;1999.90;999.90;;;13.60;99.90;;;;;;5041411;28;20855;-87
2021/05/17 06:43:15;;;;;;;1999.90;999.90;;;13.80;99.90;;;;;;5040833;28;20176;-85
2021/05/17 06:45:42;;;;;;;1999.90;999.90;;;13.90;99.90;;;;;;5058416;28;20164;-85
2021/05/17 06:48:09;;;;;;;1999.90;999.90;;;13.90;99.90;;;;;;5056582;28;20422;-85
2021/05/17 06:50:35;;;;;;;1999.90;999.90;;;13.90;99.90;;;;;;5057741;28;20177;-85
2021/05/17 06:53:01;;;;;;;1999.90;999.90;;;14.00;99.90;;;;;;5040271;28;20186;-84
2021/05/17 06:58:18;;;;;;;1999.90;999.90;;;14.30;99.90;;;;;;5057121;28;20423;-85
2021/05/17 07:00:44;;;;;;;1999.90;999.90;;;14.40;99.90;;;;;;5055896;28;20388;-85
2021/05/17 07:03:10;;;;;;;1999.90;999.90;;;14.40;99.90;;;;;;5056861;28;20402;-85
2021/05/17 07:05:40;;;;;;;1999.90;999.90;;;14.40;99.90;;;;;;5056292;28;20807;-85
2021/05/17 07:13:20;;;;;;;1999.90;999.90;;;14.30;99.90;;;;;;5056652;28;20381;-84
2021/05/17 07:15:49;;;;;;;1999.90;999.90;;;14.30;99.90;;;;;;5056495;28;20399;-85
2021/05/17 07:18:15;;;;;;;1999.90;999.90;;;14.30;99.90;;;;;;5055694;28;20453;-84
2021/05/17 07:25:55;;;;;;;1999.90;999.90;;;14.10;99.90;;;;;;5057360;28;20430;-85
2021/05/17 07:28:21;;;;;;;1999.90;999.90;;;14.10;99.90;;;;;;5060849;28;20411;-85
2021/05/17 07:30:48;;;;;;;1999.90;999.90;;;14.10;99.90;;;;;;5042912;28;20490;-85
2021/05/17 07:33:14;;;;;;;1999.90;999.90;;;14.20;99.90;;;;;;5042445;28;20418;-85
2021/05/17 07:35:43;;;;;;;1999.90;999.90;;;14.40;99.90;;;;;;5061048;28;20407;-85
2021/05/17 07:38:09;;;;;;;1999.90;999.90;;;14.50;99.90;;;;;;5060347;28;20949;-85
2021/05/17 07:40:35;;;;;;;1999.90;999.90;;;14.60;99.90;;;;;;5061370;28;20467;-86
2021/05/17 07:43:04;;;;;;;1999.90;999.90;;;14.70;99.90;;;;;;5061875;28;20883;-85
2021/05/17 07:45:37;;;;;;;1999.90;999.90;;;14.90;99.90;;;;;;5043397;28;20758;-86
2021/05/17 07:48:03;;;;;;;1999.90;999.90;;;15.00;99.90;;;;;;5042391;28;20830;-85
2021/05/17 07:50:29;;;;;;;1999.90;999.90;;;15.10;99.90;;;;;;5042060;28;20411;-85
2021/05/17 07:52:54;;;;;;;1999.90;999.90;;;15.30;99.90;;;;;;5060689;28;20471;-85
2021/05/17 07:55:22;;;;;;;1999.90;999.90;;;15.40;99.90;;;;;;5059311;28;20603;-84
2021/05/17 07:57:48;;;;;;;1999.90;999.90;;;15.20;99.90;;;;;;5042700;28;20524;-85
2021/05/17 08:00:17;;;;;;;1999.90;999.90;;;15.20;99.90;;;;;;5042305;28;20456;-85
2021/05/17 08:02:42;;;;;;;1999.90;999.90;;;15.00;99.90;;;;;;5059198;28;20759;-85
2021/05/17 08:05:09;;;;;;;1999.90;999.90;;;15.10;99.90;;;;;;5060314;28;20431;-85
2021/05/17 08:07:37;;;;;;;1999.90;999.90;;;15.10;99.90;;;;;;5059891;28;20326;-85
2021/05/17 08:10:05;;;;;;;1999.90;999.90;;;15.20;99.90;;;;;;5059734;28;20404;-85
2021/05/17 08:12:30;;;;;;;1999.90;999.90;;;15.20;99.90;;;;;;5058650;28;20422;-86
2021/05/17 08:14:57;;;;;;;1999.90;999.90;;;15.30;99.90;;;;;;5058863;28;20920;-85
2021/05/17 08:17:23;;;;;;;1999.90;999.90;;;15.40;99.90;;;;;;5042402;28;20204;-85
2021/05/17 08:19:49;;;;;;;1999.90;999.90;;;15.40;99.90;;;;;;5060314;28;20409;-85
2021/05/17 08:22:15;;;;;;;1999.90;999.90;;;15.50;99.90;;;;;;5060319;28;20435;-85
2021/05/17 08:24:41;;;;;;;1999.90;999.90;;;15.60;99.90;;;;;;5060104;28;20621;-84
2021/05/17 08:27:07;;;;;;;1999.90;999.90;;;15.60;99.90;;;;;;5041607;28;20165;-84
2021/05/17 08:29:35;;;;;;;1999.90;999.90;;;15.60;99.90;;;;;;5040718;28;20411;-85
2021/05/17 08:32:02;;;;;;;1999.90;999.90;;;15.50;99.90;;;;;;5059419;28;20408;-84
2021/05/17 08:34:29;;;;;;;1999.90;999.90;;;15.40;99.90;;;;;;5039851;28;20415;-83
2021/05/17 08:36:58;;;;;;;1999.90;999.90;;;15.10;99.90;;;;;;5056679;28;20438;-83
2021/05/17 08:39:24;;;;;;;1999.90;999.90;;;14.90;99.90;;;;;;5038048;28;20969;-84
2021/05/17 08:41:53;;;;;;;1999.90;999.90;;;14.70;99.90;;;;;;5058732;28;20439;-83
2021/05/17 08:44:19;;;;;;;1999.90;999.90;;;14.60;99.90;;;;;;5056546;28;20500;-83
2021/05/17 08:46:48;;;;;;;1999.90;999.90;;;14.40;99.90;;;;;;5040859;28;20460;-83
2021/05/17 08:49:15;;;;;;;1999.90;999.90;;;14.40;99.90;;;;;;5056881;28;20431;-84
2021/05/17 08:51:45;;;;;;;1999.90;999.90;;;14.40;99.90;;;;;;5058593;28;20770;-84
2021/05/17 08:54:11;;;;;;;1999.90;999.90;;;14.30;99.90;;;;;;5040260;28;20403;-83
2021/05/17 08:56:43;;;;;;;1999.90;999.90;;;14.30;99.90;;;;;;5040180;28;20403;-82
2021/05/17 08:59:11;;;;;;;1999.90;999.90;;;14.20;99.90;;;;;;5022563;28;20443;-82
2021/05/17 09:01:37;;;;;;;1999.90;999.90;;;14.10;99.90;;;;;;5056811;28;20446;-82
2021/05/17 09:04:11;;;;;;;1999.90;999.90;;;14.00;99.90;;;;;;5056087;28;20482;-82
2021/05/17 09:06:50;;;;;;;1999.90;999.90;;;14.00;99.90;;;;;;5037962;28;20191;-82
2021/05/17 09:09:58;;;;;;;1999.90;999.90;;;14.30;99.90;;;;;;5037831;28;20430;-82
2021/05/17 09:12:23;;;;;;;1999.90;999.90;;;14.50;99.90;;;;;;5055620;28;20407;-82
2021/05/17 09:15:33;;;;;;;1999.90;999.90;;;14.70;99.90;;;;;;5055565;28;20473;-82
2021/05/17 09:18:01;;;;;;;1999.90;999.90;;;14.80;99.90;;;;;;5056282;28;20196;-82
2021/05/17 09:20:35;;;;;;;1999.90;999.90;;;14.90;99.90;;;;;;5038150;28;20430;-82
2021/05/17 09:23:07;;;;;;;1999.90;999.90;;;15.00;99.90;;;;;;5038128;28;20446;-82
2021/05/17 09:25:33;;;;;;;1999.90;999.90;;;15.10;99.90;;;;;;5038388;28;20422;-83
2021/05/17 09:28:04;;;;;;;1999.90;999.90;;;15.00;99.90;;;;;;5057776;28;20419;-82
2021/05/17 09:30:47;;;;;;;1999.90;999.90;;;15.20;99.90;;;;;;5059146;28;20157;-82
2021/05/17 09:33:17;;;;;;;1999.90;999.90;;;15.40;99.90;;;;;;5058758;28;20493;-82
2021/05/17 09:35:47;;;;;;;1999.90;999.90;;;15.50;99.90;;;;;;5057502;28;20410;-82
2021/05/17 09:38:39;;;;;;;1999.90;999.90;;;15.70;99.90;;;;;;5057546;28;21003;-82
2021/05/17 09:41:07;;;;;;;1999.90;999.90;;;15.80;99.90;;;;;;5041276;28;20490;-82
2021/05/17 09:43:36;;;;;;;1999.90;999.90;;;15.90;99.90;;;;;;5056305;28;20407;-83
2021/05/17 09:46:02;;;;;;;1999.90;999.90;;;16.00;99.90;;;;;;5058085;28;20408;-82
2021/05/17 09:48:45;;;;;;;1999.90;999.90;;;15.80;99.90;;;;;;5043498;28;20435;-82
2021/05/17 09:51:12;;;;;;;1999.90;999.90;;;15.90;99.90;;;;;;5042424;28;20406;-82
2021/05/17 09:53:40;;;;;;;1999.90;999.90;;;16.00;99.90;;;;;;5039074;28;20902;-82
2021/05/17 09:56:20;;;;;;;1999.90;999.90;;;16.20;99.90;;;;;;5036847;28;20410;-82
2021/05/17 09:58:57;;;;;;;1999.90;999.90;;;16.40;99.90;;;;;;5036491;28;20867;-81
2021/05/17 10:01:32;;;;;;;1999.90;999.90;;;16.50;99.90;;;;;;5053408;28;20585;-82
2021/05/17 10:04:04;;;;;;;1999.90;999.90;;;16.70;99.90;;;;;;5053093;28;20964;-81
2021/05/17 10:06:29;;;;;;;1999.90;999.90;;;17.00;99.90;;;;;;5054703;28;20883;-81
2021/05/17 10:08:57;;;;;;;1999.90;999.90;;;17.20;99.90;;;;;;5054310;28;20426;-81
2021/05/17 10:11:26;;;;;;;1999.90;999.90;;;17.60;99.90;;;;;;5054630;28;20412;-81
2021/05/17 10:13:56;;;;;;;1999.90;999.90;;;17.90;99.90;;;;;;5054263;28;20393;-81
2021/05/17 10:16:23;;;;;;;1999.90;999.90;;;17.80;99.90;;;;;;5052810;28;20411;-82
2021/05/17 10:18:50;;;;;;;1999.90;999.90;;;17.70;99.90;;;;;;5054214;28;20446;-82
2021/05/17 10:21:21;;;;;;;1999.90;999.90;;;17.40;99.90;;;;;;5054348;28;20478;-81
2021/05/17 10:23:47;;;;;;;1999.90;999.90;;;17.30;99.90;;;;;;5037100;28;20384;-82
2021/05/17 10:26:21;;;;;;;1999.90;999.90;;;17.10;99.90;;;;;;5039640;28;20409;-84
2021/05/17 10:28:50;;;;;;;1999.90;999.90;;;16.70;99.90;;;;;;5040210;28;20460;-83
2021/05/17 10:31:19;;;;;;;1999.90;999.90;;;16.50;99.90;;;;;;5040820;28;20464;-84
2021/05/17 10:34:21;;;;;;;1999.90;999.90;;;16.10;99.90;;;;;;5040779;28;20923;-83
2021/05/17 10:36:58;;;;;;;1999.90;999.90;;;15.80;99.90;;;;;;5057996;28;20399;-83
2021/05/17 10:39:41;;;;;;;1999.90;999.90;;;15.50;99.90;;;;;;5059674;28;20462;-84
2021/05/17 10:48:17;;;;;;;1999.90;999.90;;;15.70;99.90;;;;;;5056497;28;20442;-84
2021/05/17 10:50:47;;;;;;;1999.90;999.90;;;15.80;99.90;;;;;;5055848;28;20386;-83
2021/05/17 10:53:41;;;;;;;1999.90;999.90;;;15.80;99.90;;;;;;5054384;28;20410;-82
2021/05/17 10:56:11;;;;;;;1999.90;999.90;;;15.70;99.90;;;;;;5057006;28;20937;-83
2021/05/17 11:01:55;;;;;;;1999.90;999.90;;;15.40;99.90;;;;;;5057259;28;20446;-83
2021/05/17 11:04:29;;;;;;;1999.90;999.90;;;15.40;99.90;;;;;;5038459;28;20399;-82
2021/05/17 11:07:23;;;;;;;1999.90;999.90;;;15.70;99.90;;;;;;5055709;28;20397;-82
2021/05/17 11:10:03;;;;;;;1999.90;999.90;;;15.90;99.90;;;;;;5038609;28;20391;-81
2021/05/17 11:12:29;;;;;;;1999.90;999.90;;;16.20;99.90;;;;;;5056390;28;20893;-84
2021/05/17 11:15:10;;;;;;;1999.90;999.90;;;16.50;99.90;;;;;;5039025;28;20407;-82
2021/05/17 11:17:54;;;;;;;1999.90;999.90;;;16.80;99.90;;;;;;5039762;28;20196;-83
2021/05/17 11:20:41;;;;;;;1999.90;999.90;;;16.50;99.90;;;;;;5039764;28;20410;-84
2021/05/17 11:23:16;;;;;;;1999.90;999.90;;;16.20;99.90;;;;;;5038363;28;20449;-84
2021/05/17 11:28:34;;;;;;;1999.90;999.90;;;15.80;99.90;;;;;;5057905;28;20462;-83
2021/05/17 11:33:53;;;;;;;1999.90;999.90;;;15.60;99.90;;;;;;5057535;28;20376;-82
2021/05/17 11:36:31;;;;;;;1999.90;999.90;;;15.30;99.90;;;;;;5056986;28;20383;-81
2021/05/17 11:39:18;;;;;;;1999.90;999.90;;;14.90;99.90;;;;;;5056636;28;20896;-81
2021/05/17 11:41:49;;;;;;;1999.90;999.90;;;14.90;99.90;;;;;;5055843;28;20480;-82
2021/05/17 11:44:28;;;;;;;1999.90;999.90;;;14.90;99.90;;;;;;5056197;28;20372;-82
2021/05/17 11:47:02;;;;;;;1999.90;999.90;;;15.30;99.90;;;;;;5056861;28;20375;-82
2021/05/17 11:49:31;;;;;;;1999.90;999.90;;;15.60;99.90;;;;;;5055945;28;20415;-82
2021/05/17 11:51:59;;;;;;;1999.90;999.90;;;15.70;99.90;;;;;;5036847;28;20510;-83
2021/05/17 11:54:29;;;;;;;1999.90;999.90;;;15.80;99.90;;;;;;5037602;28;20409;-82
2021/05/17 11:56:58;;;;;;;1999.90;999.90;;;16.10;99.90;;;;;;5037718;28;20415;-82
2021/05/17 11:59:25;;;;;;;1999.90;999.90;;;16.20;99.90;;;;;;5038455;28;20489;-84
2021/05/17 12:02:08;;;;;;;1999.90;999.90;;;16.20;99.90;;;;;;5059297;28;20501;-83
2021/05/17 12:04:36;;;;;;;1999.90;999.90;;;16.10;99.90;;;;;;5039070;28;20421;-84
2021/05/17 12:07:19;;;;;;;1999.90;999.90;;;16.20;99.90;;;;;;5056876;28;20438;-82
2021/05/17 12:09:49;;;;;;;1999.90;999.90;;;16.00;99.90;;;;;;5036294;28;20391;-83
2021/05/17 12:12:24;;;;;;;1999.90;999.90;;;16.00;99.90;;;;;;5054067;28;20386;-83
2021/05/17 12:14:56;;;;;;;1999.90;999.90;;;15.80;99.90;;;;;;5038388;28;20411;-83
2021/05/17 12:17:24;;;;;;;1999.90;999.90;;;15.90;99.90;;;;;;5057525;28;20790;-83
2021/05/17 12:20:02;;;;;;;1999.90;999.90;;;15.70;99.90;;;;;;5039705;28;20407;-83
2021/05/17 12:22:34;;;;;;;1999.90;999.90;;;15.70;99.90;;;;;;5039237;28;20451;-82
2021/05/17 12:25:01;;;;;;;1999.90;999.90;;;15.60;99.90;;;;;;5056918;28;20490;-83
2021/05/17 12:27:28;;;;;;;1999.90;999.90;;;15.60;99.90;;;;;;5043285;28;20833;-83
2021/05/17 12:29:59;;;;;;;1999.90;999.90;;;15.50;99.90;;;;;;5060252;28;20388;-84
2021/05/17 12:32:43;;;;;;;1999.90;999.90;;;15.30;99.90;;;;;;5058356;28;20399;-83
2021/05/17 12:35:32;;;;;;;1999.90;999.90;;;15.20;99.90;;;;;;5039644;28;20406;-82
2021/05/17 12:38:00;;;;;;;1999.90;999.90;;;15.30;99.90;;;;;;5039620;28;20861;-81
2021/05/17 12:40:32;;;;;;;1999.90;999.90;;;15.60;99.90;;;;;;5056814;28;20409;-82
2021/05/17 12:43:08;;;;;;;1999.90;999.90;;;16.10;99.90;;;;;;5057248;28;20466;-82
2021/05/17 12:45:36;;;;;;;1999.90;999.90;;;16.50;99.90;;;;;;5040661;28;20847;-83
2021/05/17 12:48:38;;;;;;;1999.90;999.90;;;16.70;99.90;;;;;;5059305;28;20424;-81
2021/05/17 12:51:22;;;;;;;1999.90;999.90;;;16.50;99.90;;;;;;5058645;28;20721;-83